sensor_id;sensor_type;location;lat;lon;timestamp;P1;durP1;ratioP1;P2;durP2;ratioP2
20635;SDS011;10477;43.198;27.916;2022-07-23T00:00:33;52.07;;;48.03;;
20635;SDS011;10477;43.198;27.916;2022-07-23T00:03:02;52.87;;;48.77;;
20635;SDS011;10477;43.198;27.916;2022-07-23T00:05:30;51.53;;;47.27;;
20635;SDS011;10477;43.198;27.916;2022-07-23T00:07:57;52.50;;;48.30;;
20635;SDS011;10477;43.198;27.916;2022-07-23T00:10:25;48.57;;;44.67;;
20635;SDS011;10477;43.198;27.916;2022-07-23T00:12:53;47.93;;;44.13;;
20635;SDS011;10477;43.198;27.916;2022-07-23T00:15:20;42.40;;;39.00;;
20635;SDS011;10477;43.198;27.916;2022-07-23T00:17:48;43.10;;;39.63;;
20635;SDS011;10477;43.198;27.916;2022-07-23T00:20:17;40.50;;;37.50;;
20635;SDS011;10477;43.198;27.916;2022-07-23T00:22:49;41.88;;;38.40;;
20635;SDS011;10477;43.198;27.916;2022-07-23T00:25:18;39.65;;;36.10;;
20635;SDS011;10477;43.198;27.916;2022-07-23T00:27:46;37.90;;;35.00;;
20635;SDS011;10477;43.198;27.916;2022-07-23T00:30:14;38.40;;;35.30;;
20635;SDS011;10477;43.198;27.916;2022-07-23T00:32:53;40.10;;;37.10;;
20635;SDS011;10477;43.198;27.916;2022-07-23T00:35:22;39.50;;;36.50;;
20635;SDS011;10477;43.198;27.916;2022-07-23T00:37:54;39.43;;;36.43;;
20635;SDS011;10477;43.198;27.916;2022-07-23T00:40:23;43.87;;;40.57;;
20635;SDS011;10477;43.198;27.916;2022-07-23T00:42:52;41.47;;;38.57;;
20635;SDS011;10477;43.198;27.916;2022-07-23T00:45:20;37.70;;;35.00;;
20635;SDS011;10477;43.198;27.916;2022-07-23T00:47:48;37.70;;;34.87;;
20635;SDS011;10477;43.198;27.916;2022-07-23T00:50:16;37.93;;;35.23;;
20635;SDS011;10477;43.198;27.916;2022-07-23T00:52:44;40.27;;;37.37;;
20635;SDS011;10477;43.198;27.916;2022-07-23T00:55:12;35.40;;;32.80;;
20635;SDS011;10477;43.198;27.916;2022-07-23T00:57:41;37.30;;;34.60;;
20635;SDS011;10477;43.198;27.916;2022-07-23T01:00:10;38.43;;;35.73;;
20635;SDS011;10477;43.198;27.916;2022-07-23T01:02:40;38.57;;;35.80;;
20635;SDS011;10477;43.198;27.916;2022-07-23T01:05:09;39.70;;;36.90;;
20635;SDS011;10477;43.198;27.916;2022-07-23T01:07:37;36.93;;;34.23;;
20635;SDS011;10477;43.198;27.916;2022-07-23T01:10:05;36.13;;;33.53;;
20635;SDS011;10477;43.198;27.916;2022-07-23T01:12:35;35.80;;;33.30;;
20635;SDS011;10477;43.198;27.916;2022-07-23T01:15:03;39.80;;;37.10;;
20635;SDS011;10477;43.198;27.916;2022-07-23T01:17:32;36.57;;;34.07;;
20635;SDS011;10477;43.198;27.916;2022-07-23T01:19:59;35.40;;;33.00;;
20635;SDS011;10477;43.198;27.916;2022-07-23T01:22:28;33.75;;;31.35;;
20635;SDS011;10477;43.198;27.916;2022-07-23T01:24:56;36.17;;;33.67;;
20635;SDS011;10477;43.198;27.916;2022-07-23T01:27:24;38.53;;;35.77;;
20635;SDS011;10477;43.198;27.916;2022-07-23T01:29:51;39.37;;;36.67;;
20635;SDS011;10477;43.198;27.916;2022-07-23T01:32:21;50.57;;;41.27;;
20635;SDS011;10477;43.198;27.916;2022-07-23T01:34:49;37.80;;;35.00;;
20635;SDS011;10477;43.198;27.916;2022-07-23T01:37:16;40.17;;;37.27;;
20635;SDS011;10477;43.198;27.916;2022-07-23T01:39:44;38.40;;;35.60;;
20635;SDS011;10477;43.198;27.916;2022-07-23T01:42:12;40.90;;;37.67;;
20635;SDS011;10477;43.198;27.916;2022-07-23T01:44:39;38.13;;;35.33;;
20635;SDS011;10477;43.198;27.916;2022-07-23T01:47:07;54.30;;;39.30;;
20635;SDS011;10477;43.198;27.916;2022-07-23T01:49:35;40.90;;;38.00;;
20635;SDS011;10477;43.198;27.916;2022-07-23T01:52:02;43.30;;;40.23;;
20635;SDS011;10477;43.198;27.916;2022-07-23T01:54:32;38.33;;;35.43;;
20635;SDS011;10477;43.198;27.916;2022-07-23T01:57:01;41.07;;;37.97;;
20635;SDS011;10477;43.198;27.916;2022-07-23T01:59:31;43.87;;;40.57;;
20635;SDS011;10477;43.198;27.916;2022-07-23T02:01:58;41.93;;;38.73;;
20635;SDS011;10477;43.198;27.916;2022-07-23T02:04:25;44.93;;;41.33;;
20635;SDS011;10477;43.198;27.916;2022-07-23T02:06:54;40.43;;;37.33;;
20635;SDS011;10477;43.198;27.916;2022-07-23T02:09:23;42.93;;;39.83;;
20635;SDS011;10477;43.198;27.916;2022-07-23T02:11:51;41.00;;;37.60;;
20635;SDS011;10477;43.198;27.916;2022-07-23T02:14:18;39.03;;;36.03;;
20635;SDS011;10477;43.198;27.916;2022-07-23T02:16:46;38.80;;;35.80;;
20635;SDS011;10477;43.198;27.916;2022-07-23T02:19:14;38.73;;;35.63;;
20635;SDS011;10477;43.198;27.916;2022-07-23T02:21:42;37.33;;;34.43;;
20635;SDS011;10477;43.198;27.916;2022-07-23T02:24:09;38.03;;;35.07;;
20635;SDS011;10477;43.198;27.916;2022-07-23T02:26:37;38.33;;;35.57;;
20635;SDS011;10477;43.198;27.916;2022-07-23T02:29:05;38.47;;;35.37;;
20635;SDS011;10477;43.198;27.916;2022-07-23T02:31:33;37.37;;;34.57;;
20635;SDS011;10477;43.198;27.916;2022-07-23T02:34:01;39.03;;;36.10;;
20635;SDS011;10477;43.198;27.916;2022-07-23T02:36:30;44.80;;;41.50;;
20635;SDS011;10477;43.198;27.916;2022-07-23T02:38:57;40.40;;;37.40;;
20635;SDS011;10477;43.198;27.916;2022-07-23T02:41:25;42.57;;;39.27;;
20635;SDS011;10477;43.198;27.916;2022-07-23T02:43:53;41.47;;;38.23;;
20635;SDS011;10477;43.198;27.916;2022-07-23T02:46:20;45.83;;;42.53;;
20635;SDS011;10477;43.198;27.916;2022-07-23T02:48:48;46.20;;;42.65;;
20635;SDS011;10477;43.198;27.916;2022-07-23T02:51:15;46.40;;;42.70;;
20635;SDS011;10477;43.198;27.916;2022-07-23T02:53:43;43.60;;;39.73;;
20635;SDS011;10477;43.198;27.916;2022-07-23T02:56:11;43.67;;;40.17;;
20635;SDS011;10477;43.198;27.916;2022-07-23T02:58:40;48.00;;;43.90;;
20635;SDS011;10477;43.198;27.916;2022-07-23T03:01:08;44.30;;;40.60;;
20635;SDS011;10477;43.198;27.916;2022-07-23T03:03:35;46.83;;;43.13;;
20635;SDS011;10477;43.198;27.916;2022-07-23T03:06:03;38.80;;;35.90;;
20635;SDS011;10477;43.198;27.916;2022-07-23T03:08:31;40.07;;;36.87;;
20635;SDS011;10477;43.198;27.916;2022-07-23T03:10:58;36.33;;;33.53;;
20635;SDS011;10477;43.198;27.916;2022-07-23T03:13:26;37.53;;;34.53;;
20635;SDS011;10477;43.198;27.916;2022-07-23T03:15:55;36.77;;;33.97;;
20635;SDS011;10477;43.198;27.916;2022-07-23T03:18:22;36.53;;;33.63;;
20635;SDS011;10477;43.198;27.916;2022-07-23T03:20:50;33.10;;;30.50;;
20635;SDS011;10477;43.198;27.916;2022-07-23T03:23:18;32.00;;;29.50;;
20635;SDS011;10477;43.198;27.916;2022-07-23T03:25:45;37.03;;;33.77;;
20635;SDS011;10477;43.198;27.916;2022-07-23T03:28:16;32.28;;;29.77;;
20635;SDS011;10477;43.198;27.916;2022-07-23T03:30:45;31.40;;;28.90;;
20635;SDS011;10477;43.198;27.916;2022-07-23T03:33:14;30.30;;;27.80;;
20635;SDS011;10477;43.198;27.916;2022-07-23T03:35:43;33.42;;;30.92;;
20635;SDS011;10477;43.198;27.916;2022-07-23T03:38:12;34.00;;;31.40;;
20635;SDS011;10477;43.198;27.916;2022-07-23T03:40:40;34.38;;;31.68;;
20635;SDS011;10477;43.198;27.916;2022-07-23T03:43:08;30.88;;;28.40;;
20635;SDS011;10477;43.198;27.916;2022-07-23T03:45:35;29.85;;;27.55;;
20635;SDS011;10477;43.198;27.916;2022-07-23T03:48:03;30.57;;;28.15;;
20635;SDS011;10477;43.198;27.916;2022-07-23T03:50:31;32.03;;;29.55;;
20635;SDS011;10477;43.198;27.916;2022-07-23T03:53:00;28.30;;;26.10;;
20635;SDS011;10477;43.198;27.916;2022-07-23T03:55:27;26.97;;;24.87;;
20635;SDS011;10477;43.198;27.916;2022-07-23T03:57:56;25.72;;;23.73;;
20635;SDS011;10477;43.198;27.916;2022-07-23T04:00:24;27.30;;;25.23;;
20635;SDS011;10477;43.198;27.916;2022-07-23T04:02:52;27.35;;;25.25;;
20635;SDS011;10477;43.198;27.916;2022-07-23T04:05:19;26.17;;;24.18;;
20635;SDS011;10477;43.198;27.916;2022-07-23T04:07:47;26.02;;;23.98;;
20635;SDS011;10477;43.198;27.916;2022-07-23T04:10:15;28.47;;;25.82;;
20635;SDS011;10477;43.198;27.916;2022-07-23T04:12:42;27.98;;;25.85;;
20635;SDS011;10477;43.198;27.916;2022-07-23T04:15:10;25.72;;;23.75;;
20635;SDS011;10477;43.198;27.916;2022-07-23T04:17:38;24.45;;;22.60;;
20635;SDS011;10477;43.198;27.916;2022-07-23T04:20:05;24.37;;;22.58;;
20635;SDS011;10477;43.198;27.916;2022-07-23T04:22:33;25.75;;;23.40;;
20635;SDS011;10477;43.198;27.916;2022-07-23T04:25:01;24.85;;;22.65;;
20635;SDS011;10477;43.198;27.916;2022-07-23T04:27:30;23.90;;;22.13;;
20635;SDS011;10477;43.198;27.916;2022-07-23T04:29:59;24.05;;;22.15;;
20635;SDS011;10477;43.198;27.916;2022-07-23T04:32:26;23.50;;;21.70;;
20635;SDS011;10477;43.198;27.916;2022-07-23T04:34:55;25.08;;;23.18;;
20635;SDS011;10477;43.198;27.916;2022-07-23T04:37:22;24.55;;;22.75;;
20635;SDS011;10477;43.198;27.916;2022-07-23T04:39:50;25.52;;;23.52;;
20635;SDS011;10477;43.198;27.916;2022-07-23T04:42:18;23.80;;;22.00;;
20635;SDS011;10477;43.198;27.916;2022-07-23T04:44:45;25.23;;;23.22;;
20635;SDS011;10477;43.198;27.916;2022-07-23T04:47:13;23.60;;;21.80;;
20635;SDS011;10477;43.198;27.916;2022-07-23T04:49:41;26.10;;;23.92;;
20635;SDS011;10477;43.198;27.916;2022-07-23T04:52:08;23.90;;;22.10;;
20635;SDS011;10477;43.198;27.916;2022-07-23T04:54:36;22.55;;;20.75;;
20635;SDS011;10477;43.198;27.916;2022-07-23T04:57:03;24.30;;;22.32;;
20635;SDS011;10477;43.198;27.916;2022-07-23T04:59:31;24.27;;;22.37;;
20635;SDS011;10477;43.198;27.916;2022-07-23T05:01:59;23.65;;;21.85;;
20635;SDS011;10477;43.198;27.916;2022-07-23T05:04:28;23.50;;;21.60;;
20635;SDS011;10477;43.198;27.916;2022-07-23T05:06:57;23.65;;;21.75;;
20635;SDS011;10477;43.198;27.916;2022-07-23T05:09:25;25.90;;;23.22;;
20635;SDS011;10477;43.198;27.916;2022-07-23T05:11:52;23.32;;;21.52;;
20635;SDS011;10477;43.198;27.916;2022-07-23T05:14:20;23.77;;;21.97;;
20635;SDS011;10477;43.198;27.916;2022-07-23T05:16:48;25.12;;;23.07;;
20635;SDS011;10477;43.198;27.916;2022-07-23T05:19:15;23.20;;;21.37;;
20635;SDS011;10477;43.198;27.916;2022-07-23T05:21:43;24.55;;;22.55;;
20635;SDS011;10477;43.198;27.916;2022-07-23T05:24:10;24.72;;;22.73;;
20635;SDS011;10477;43.198;27.916;2022-07-23T05:26:40;25.05;;;23.05;;
20635;SDS011;10477;43.198;27.916;2022-07-23T05:29:09;23.75;;;21.85;;
20635;SDS011;10477;43.198;27.916;2022-07-23T05:31:36;23.83;;;21.93;;
20635;SDS011;10477;43.198;27.916;2022-07-23T05:34:04;26.02;;;23.47;;
20635;SDS011;10477;43.198;27.916;2022-07-23T05:36:32;25.12;;;22.50;;
20635;SDS011;10477;43.198;27.916;2022-07-23T05:39:00;23.55;;;21.70;;
20635;SDS011;10477;43.198;27.916;2022-07-23T05:41:27;23.12;;;21.23;;
20635;SDS011;10477;43.198;27.916;2022-07-23T05:43:55;22.98;;;21.17;;
20635;SDS011;10477;43.198;27.916;2022-07-23T05:46:22;23.55;;;21.23;;
20635;SDS011;10477;43.198;27.916;2022-07-23T05:48:50;23.02;;;21.20;;
20635;SDS011;10477;43.198;27.916;2022-07-23T05:51:21;24.65;;;22.67;;
20635;SDS011;10477;43.198;27.916;2022-07-23T05:53:50;22.58;;;20.77;;
20635;SDS011;10477;43.198;27.916;2022-07-23T05:56:19;22.98;;;21.17;;
20635;SDS011;10477;43.198;27.916;2022-07-23T05:58:47;23.92;;;22.13;;
20635;SDS011;10477;43.198;27.916;2022-07-23T06:01:14;22.65;;;20.95;;
20635;SDS011;10477;43.198;27.916;2022-07-23T06:03:44;23.67;;;21.62;;
20635;SDS011;10477;43.198;27.916;2022-07-23T06:06:11;22.40;;;20.70;;
20635;SDS011;10477;43.198;27.916;2022-07-23T06:08:39;21.37;;;19.77;;
20635;SDS011;10477;43.198;27.916;2022-07-23T06:11:07;22.50;;;20.70;;
20635;SDS011;10477;43.198;27.916;2022-07-23T06:13:36;21.95;;;20.25;;
20635;SDS011;10477;43.198;27.916;2022-07-23T06:16:04;22.82;;;21.07;;
20635;SDS011;10477;43.198;27.916;2022-07-23T06:18:31;22.42;;;20.65;;
20635;SDS011;10477;43.198;27.916;2022-07-23T06:20:59;21.90;;;20.20;;
20635;SDS011;10477;43.198;27.916;2022-07-23T06:23:27;23.00;;;21.20;;
20635;SDS011;10477;43.198;27.916;2022-07-23T06:25:54;23.60;;;21.77;;
20635;SDS011;10477;43.198;27.916;2022-07-23T06:28:22;22.58;;;20.88;;
20635;SDS011;10477;43.198;27.916;2022-07-23T06:30:50;22.20;;;20.40;;
20635;SDS011;10477;43.198;27.916;2022-07-23T06:33:17;22.25;;;20.55;;
20635;SDS011;10477;43.198;27.916;2022-07-23T06:35:45;23.25;;;21.48;;
20635;SDS011;10477;43.198;27.916;2022-07-23T06:38:12;23.47;;;21.68;;
20635;SDS011;10477;43.198;27.916;2022-07-23T06:40:40;22.40;;;20.70;;
20635;SDS011;10477;43.198;27.916;2022-07-23T06:43:09;22.10;;;20.40;;
20635;SDS011;10477;43.198;27.916;2022-07-23T06:45:37;21.45;;;19.75;;
20635;SDS011;10477;43.198;27.916;2022-07-23T06:48:04;21.50;;;19.90;;
20635;SDS011;10477;43.198;27.916;2022-07-23T06:50:32;21.75;;;20.12;;
20635;SDS011;10477;43.198;27.916;2022-07-23T06:53:00;21.10;;;19.48;;
20635;SDS011;10477;43.198;27.916;2022-07-23T06:55:28;21.85;;;19.80;;
20635;SDS011;10477;43.198;27.916;2022-07-23T06:57:56;21.05;;;19.45;;
20635;SDS011;10477;43.198;27.916;2022-07-23T07:00:24;21.27;;;19.67;;
20635;SDS011;10477;43.198;27.916;2022-07-23T07:02:53;21.42;;;19.82;;
20635;SDS011;10477;43.198;27.916;2022-07-23T07:05:21;20.70;;;19.10;;
20635;SDS011;10477;43.198;27.916;2022-07-23T07:07:48;21.10;;;19.50;;
20635;SDS011;10477;43.198;27.916;2022-07-23T07:10:16;21.45;;;19.85;;
20635;SDS011;10477;43.198;27.916;2022-07-23T07:12:44;22.90;;;20.90;;
20635;SDS011;10477;43.198;27.916;2022-07-23T07:15:12;20.80;;;19.30;;
20635;SDS011;10477;43.198;27.916;2022-07-23T07:17:40;20.25;;;18.75;;
20635;SDS011;10477;43.198;27.916;2022-07-23T07:20:08;20.72;;;19.23;;
20635;SDS011;10477;43.198;27.916;2022-07-23T07:22:36;19.37;;;17.98;;
20635;SDS011;10477;43.198;27.916;2022-07-23T07:25:05;20.30;;;18.80;;
20635;SDS011;10477;43.198;27.916;2022-07-23T07:27:33;20.02;;;18.52;;
20635;SDS011;10477;43.198;27.916;2022-07-23T07:30:02;19.80;;;18.30;;
20635;SDS011;10477;43.198;27.916;2022-07-23T07:32:31;20.02;;;18.52;;
20635;SDS011;10477;43.198;27.916;2022-07-23T07:34:59;19.73;;;18.32;;
20635;SDS011;10477;43.198;27.916;2022-07-23T07:37:26;20.20;;;18.70;;
20635;SDS011;10477;43.198;27.916;2022-07-23T07:39:55;20.68;;;19.17;;
20635;SDS011;10477;43.198;27.916;2022-07-23T07:42:22;20.85;;;19.25;;
20635;SDS011;10477;43.198;27.916;2022-07-23T07:44:50;21.10;;;19.50;;
20635;SDS011;10477;43.198;27.916;2022-07-23T07:47:18;22.20;;;20.60;;
20635;SDS011;10477;43.198;27.916;2022-07-23T07:49:47;20.77;;;19.27;;
20635;SDS011;10477;43.198;27.916;2022-07-23T07:52:15;20.43;;;18.92;;
20635;SDS011;10477;43.198;27.916;2022-07-23T07:54:44;21.55;;;19.95;;
20635;SDS011;10477;43.198;27.916;2022-07-23T07:57:11;19.48;;;18.07;;
20635;SDS011;10477;43.198;27.916;2022-07-23T07:59:39;20.37;;;18.87;;
20635;SDS011;10477;43.198;27.916;2022-07-23T08:02:07;20.45;;;18.95;;
20635;SDS011;10477;43.198;27.916;2022-07-23T08:04:34;19.82;;;18.42;;
20635;SDS011;10477;43.198;27.916;2022-07-23T08:07:02;20.12;;;18.62;;
20635;SDS011;10477;43.198;27.916;2022-07-23T08:09:29;20.77;;;19.27;;
20635;SDS011;10477;43.198;27.916;2022-07-23T08:11:57;20.52;;;19.02;;
20635;SDS011;10477;43.198;27.916;2022-07-23T08:14:25;20.52;;;19.02;;
20635;SDS011;10477;43.198;27.916;2022-07-23T08:16:53;20.80;;;19.30;;
20635;SDS011;10477;43.198;27.916;2022-07-23T08:19:20;21.60;;;20.00;;
20635;SDS011;10477;43.198;27.916;2022-07-23T08:21:48;21.80;;;20.20;;
20635;SDS011;10477;43.198;27.916;2022-07-23T08:24:15;21.48;;;19.87;;
20635;SDS011;10477;43.198;27.916;2022-07-23T08:26:43;20.10;;;18.60;;
20635;SDS011;10477;43.198;27.916;2022-07-23T08:29:11;20.17;;;18.67;;
20635;SDS011;10477;43.198;27.916;2022-07-23T08:31:38;20.30;;;18.80;;
20635;SDS011;10477;43.198;27.916;2022-07-23T08:34:08;21.00;;;19.40;;
20635;SDS011;10477;43.198;27.916;2022-07-23T08:36:35;20.27;;;18.77;;
20635;SDS011;10477;43.198;27.916;2022-07-23T08:39:03;21.20;;;19.62;;
20635;SDS011;10477;43.198;27.916;2022-07-23T08:41:30;21.05;;;19.55;;
20635;SDS011;10477;43.198;27.916;2022-07-23T08:44:00;20.65;;;19.15;;
20635;SDS011;10477;43.198;27.916;2022-07-23T08:46:28;21.55;;;19.95;;
20635;SDS011;10477;43.198;27.916;2022-07-23T08:48:56;20.60;;;19.10;;
20635;SDS011;10477;43.198;27.916;2022-07-23T08:51:25;20.80;;;19.30;;
20635;SDS011;10477;43.198;27.916;2022-07-23T08:53:55;22.22;;;20.62;;
20635;SDS011;10477;43.198;27.916;2022-07-23T08:56:25;21.90;;;20.30;;
20635;SDS011;10477;43.198;27.916;2022-07-23T08:58:53;21.75;;;20.15;;
20635;SDS011;10477;43.198;27.916;2022-07-23T09:01:20;23.18;;;21.48;;
20635;SDS011;10477;43.198;27.916;2022-07-23T09:03:48;22.50;;;20.90;;
20635;SDS011;10477;43.198;27.916;2022-07-23T09:06:16;22.58;;;20.97;;
20635;SDS011;10477;43.198;27.916;2022-07-23T09:08:45;22.52;;;20.92;;
20635;SDS011;10477;43.198;27.916;2022-07-23T09:11:15;22.13;;;20.52;;
20635;SDS011;10477;43.198;27.916;2022-07-23T09:18:49;22.20;;;20.60;;
20635;SDS011;10477;43.198;27.916;2022-07-23T09:24:12;22.62;;;21.02;;
20635;SDS011;10477;43.198;27.916;2022-07-23T09:26:38;23.42;;;21.73;;
20635;SDS011;10477;43.198;27.916;2022-07-23T09:29:11;23.55;;;21.95;;
20635;SDS011;10477;43.198;27.916;2022-07-23T09:31:50;22.45;;;20.85;;
20635;SDS011;10477;43.198;27.916;2022-07-23T09:34:34;21.73;;;19.90;;
20635;SDS011;10477;43.198;27.916;2022-07-23T09:37:16;21.30;;;19.80;;
20635;SDS011;10477;43.198;27.916;2022-07-23T09:39:45;22.00;;;20.50;;
20635;SDS011;10477;43.198;27.916;2022-07-23T09:42:17;21.85;;;20.27;;
20635;SDS011;10477;43.198;27.916;2022-07-23T09:44:47;21.90;;;20.30;;
20635;SDS011;10477;43.198;27.916;2022-07-23T09:47:19;20.92;;;19.42;;
20635;SDS011;10477;43.198;27.916;2022-07-23T09:50:02;24.25;;;22.55;;
20635;SDS011;10477;43.198;27.916;2022-07-23T09:52:35;23.38;;;21.68;;
20635;SDS011;10477;43.198;27.916;2022-07-23T09:55:06;23.47;;;21.77;;
20635;SDS011;10477;43.198;27.916;2022-07-23T09:57:36;23.20;;;21.60;;
20635;SDS011;10477;43.198;27.916;2022-07-23T10:00:07;23.67;;;21.97;;
20635;SDS011;10477;43.198;27.916;2022-07-23T10:02:38;22.52;;;20.90;;
20635;SDS011;10477;43.198;27.916;2022-07-23T10:05:06;23.75;;;21.97;;
20635;SDS011;10477;43.198;27.916;2022-07-23T10:07:36;21.80;;;20.30;;
20635;SDS011;10477;43.198;27.916;2022-07-23T10:10:06;22.48;;;20.77;;
20635;SDS011;10477;43.198;27.916;2022-07-23T10:12:35;23.55;;;21.75;;
20635;SDS011;10477;43.198;27.916;2022-07-23T10:15:08;22.02;;;20.52;;
20635;SDS011;10477;43.198;27.916;2022-07-23T10:17:36;22.27;;;20.62;;
20635;SDS011;10477;43.198;27.916;2022-07-23T10:20:05;21.55;;;19.95;;
20635;SDS011;10477;43.198;27.916;2022-07-23T10:22:35;25.17;;;23.38;;
20635;SDS011;10477;43.198;27.916;2022-07-23T10:25:12;22.62;;;21.02;;
20635;SDS011;10477;43.198;27.916;2022-07-23T10:30:45;21.42;;;19.92;;
20635;SDS011;10477;43.198;27.916;2022-07-23T10:36:30;20.80;;;19.30;;
20635;SDS011;10477;43.198;27.916;2022-07-23T10:38:58;22.05;;;20.45;;
20635;SDS011;10477;43.198;27.916;2022-07-23T10:41:33;22.73;;;21.12;;
20635;SDS011;10477;43.198;27.916;2022-07-23T10:44:06;22.50;;;20.90;;
20635;SDS011;10477;43.198;27.916;2022-07-23T10:47:00;22.30;;;20.60;;
20635;SDS011;10477;43.198;27.916;2022-07-23T10:49:32;23.00;;;21.40;;
20635;SDS011;10477;43.198;27.916;2022-07-23T10:52:19;21.60;;;20.10;;
20635;SDS011;10477;43.198;27.916;2022-07-23T10:57:49;22.95;;;21.35;;
20635;SDS011;10477;43.198;27.916;2022-07-23T11:00:24;23.57;;;21.77;;
20635;SDS011;10477;43.198;27.916;2022-07-23T11:02:55;22.67;;;21.07;;
20635;SDS011;10477;43.198;27.916;2022-07-23T11:05:39;23.30;;;21.70;;
20635;SDS011;10477;43.198;27.916;2022-07-23T11:10:37;24.72;;;23.02;;
20635;SDS011;10477;43.198;27.916;2022-07-23T11:32:01;24.67;;;22.98;;
20635;SDS011;10477;43.198;27.916;2022-07-23T11:34:45;22.62;;;21.02;;
20635;SDS011;10477;43.198;27.916;2022-07-23T11:37:10;23.00;;;21.40;;
20635;SDS011;10477;43.198;27.916;2022-07-23T11:39:40;24.60;;;22.90;;
20635;SDS011;10477;43.198;27.916;2022-07-23T11:42:08;24.15;;;22.45;;
20635;SDS011;10477;43.198;27.916;2022-07-23T11:44:38;25.40;;;23.70;;
20635;SDS011;10477;43.198;27.916;2022-07-23T11:47:07;24.75;;;23.05;;
20635;SDS011;10477;43.198;27.916;2022-07-23T11:49:37;23.50;;;21.90;;
20635;SDS011;10477;43.198;27.916;2022-07-23T11:52:12;25.40;;;23.60;;
20635;SDS011;10477;43.198;27.916;2022-07-23T11:54:48;26.45;;;24.65;;
20635;SDS011;10477;43.198;27.916;2022-07-23T11:57:18;25.75;;;23.95;;
20635;SDS011;10477;43.198;27.916;2022-07-23T11:59:49;24.82;;;23.02;;
20635;SDS011;10477;43.198;27.916;2022-07-23T12:02:19;27.25;;;24.95;;
20635;SDS011;10477;43.198;27.916;2022-07-23T12:04:49;25.55;;;23.65;;
20635;SDS011;10477;43.198;27.916;2022-07-23T12:07:37;26.87;;;24.98;;
20635;SDS011;10477;43.198;27.916;2022-07-23T12:10:11;25.60;;;23.80;;
20635;SDS011;10477;43.198;27.916;2022-07-23T12:12:45;26.23;;;24.32;;
20635;SDS011;10477;43.198;27.916;2022-07-23T12:15:19;27.87;;;25.88;;
20635;SDS011;10477;43.198;27.916;2022-07-23T12:17:49;26.95;;;25.05;;
20635;SDS011;10477;43.198;27.916;2022-07-23T12:20:19;26.97;;;25.08;;
20635;SDS011;10477;43.198;27.916;2022-07-23T12:22:56;25.55;;;23.75;;
20635;SDS011;10477;43.198;27.916;2022-07-23T12:25:22;26.33;;;24.43;;
20635;SDS011;10477;43.198;27.916;2022-07-23T12:27:59;26.20;;;24.27;;
20635;SDS011;10477;43.198;27.916;2022-07-23T12:30:38;24.47;;;22.67;;
20635;SDS011;10477;43.198;27.916;2022-07-23T12:33:08;26.00;;;24.10;;
20635;SDS011;10477;43.198;27.916;2022-07-23T12:35:39;25.92;;;24.02;;
20635;SDS011;10477;43.198;27.916;2022-07-23T12:38:09;25.60;;;23.70;;
20635;SDS011;10477;43.198;27.916;2022-07-23T12:40:46;26.10;;;24.20;;
20635;SDS011;10477;43.198;27.916;2022-07-23T12:43:29;26.33;;;24.43;;
20635;SDS011;10477;43.198;27.916;2022-07-23T12:46:05;25.88;;;23.98;;
20635;SDS011;10477;43.198;27.916;2022-07-23T12:48:38;27.73;;;25.70;;
20635;SDS011;10477;43.198;27.916;2022-07-23T12:51:14;27.87;;;25.77;;
20635;SDS011;10477;43.198;27.916;2022-07-23T12:53:44;28.90;;;26.70;;
20635;SDS011;10477;43.198;27.916;2022-07-23T12:56:17;26.95;;;24.95;;
20635;SDS011;10477;43.198;27.916;2022-07-23T12:58:50;27.90;;;25.80;;
20635;SDS011;10477;43.198;27.916;2022-07-23T13:01:34;27.45;;;25.45;;
20635;SDS011;10477;43.198;27.916;2022-07-23T13:04:04;27.65;;;25.55;;
20635;SDS011;10477;43.198;27.916;2022-07-23T13:06:37;26.85;;;24.85;;
20635;SDS011;10477;43.198;27.916;2022-07-23T13:09:15;26.93;;;24.90;;
20635;SDS011;10477;43.198;27.916;2022-07-23T13:11:40;27.10;;;25.08;;
20635;SDS011;10477;43.198;27.916;2022-07-23T13:14:11;26.77;;;24.77;;
20635;SDS011;10477;43.198;27.916;2022-07-23T13:16:39;26.37;;;24.47;;
20635;SDS011;10477;43.198;27.916;2022-07-23T13:19:08;27.82;;;25.62;;
20635;SDS011;10477;43.198;27.916;2022-07-23T13:21:37;28.00;;;25.90;;
20635;SDS011;10477;43.198;27.916;2022-07-23T13:24:08;27.15;;;25.15;;
20635;SDS011;10477;43.198;27.916;2022-07-23T13:26:36;27.77;;;25.68;;
20635;SDS011;10477;43.198;27.916;2022-07-23T13:29:05;26.75;;;24.85;;
20635;SDS011;10477;43.198;27.916;2022-07-23T13:31:35;27.10;;;25.10;;
20635;SDS011;10477;43.198;27.916;2022-07-23T13:34:03;27.77;;;25.68;;
20635;SDS011;10477;43.198;27.916;2022-07-23T13:36:33;27.05;;;24.95;;
20635;SDS011;10477;43.198;27.916;2022-07-23T13:39:04;26.93;;;25.02;;
20635;SDS011;10477;43.198;27.916;2022-07-23T13:41:32;27.50;;;25.60;;
20635;SDS011;10477;43.198;27.916;2022-07-23T13:43:59;27.50;;;25.40;;
20635;SDS011;10477;43.198;27.916;2022-07-23T13:46:29;28.15;;;26.05;;
20635;SDS011;10477;43.198;27.916;2022-07-23T13:48:56;29.23;;;27.02;;
20635;SDS011;10477;43.198;27.916;2022-07-23T13:51:24;29.12;;;26.95;;
20635;SDS011;10477;43.198;27.916;2022-07-23T13:53:51;28.98;;;26.77;;
20635;SDS011;10477;43.198;27.916;2022-07-23T13:56:20;28.95;;;26.75;;
20635;SDS011;10477;43.198;27.916;2022-07-23T13:58:48;30.00;;;27.70;;
20635;SDS011;10477;43.198;27.916;2022-07-23T14:01:15;30.40;;;28.10;;
20635;SDS011;10477;43.198;27.916;2022-07-23T14:03:43;29.27;;;27.07;;
20635;SDS011;10477;43.198;27.916;2022-07-23T14:06:11;29.98;;;27.67;;
20635;SDS011;10477;43.198;27.916;2022-07-23T14:08:38;34.92;;;32.23;;
20635;SDS011;10477;43.198;27.916;2022-07-23T14:11:06;32.98;;;30.52;;
20635;SDS011;10477;43.198;27.916;2022-07-23T14:13:33;31.33;;;28.92;;
20635;SDS011;10477;43.198;27.916;2022-07-23T14:16:01;32.33;;;29.82;;
20635;SDS011;10477;43.198;27.916;2022-07-23T14:18:30;41.28;;;38.08;;
20635;SDS011;10477;43.198;27.916;2022-07-23T14:20:58;34.63;;;31.82;;
20635;SDS011;10477;43.198;27.916;2022-07-23T14:23:25;33.80;;;31.00;;
20635;SDS011;10477;43.198;27.916;2022-07-23T14:25:53;37.15;;;34.30;;
20635;SDS011;10477;43.198;27.916;2022-07-23T14:28:21;35.03;;;32.30;;
20635;SDS011;10477;43.198;27.916;2022-07-23T14:30:48;33.40;;;30.60;;
20635;SDS011;10477;43.198;27.916;2022-07-23T14:33:16;33.78;;;30.97;;
20635;SDS011;10477;43.198;27.916;2022-07-23T14:35:44;33.18;;;30.48;;
20635;SDS011;10477;43.198;27.916;2022-07-23T14:38:11;35.25;;;32.50;;
20635;SDS011;10477;43.198;27.916;2022-07-23T14:40:40;34.23;;;31.52;;
20635;SDS011;10477;43.198;27.916;2022-07-23T14:43:08;35.63;;;32.67;;
20635;SDS011;10477;43.198;27.916;2022-07-23T14:45:37;36.08;;;32.88;;
20635;SDS011;10477;43.198;27.916;2022-07-23T14:48:05;31.90;;;29.15;;
20635;SDS011;10477;43.198;27.916;2022-07-23T14:50:33;32.35;;;29.55;;
20635;SDS011;10477;43.198;27.916;2022-07-23T14:53:01;33.42;;;30.43;;
20635;SDS011;10477;43.198;27.916;2022-07-23T14:55:34;33.28;;;30.57;;
20635;SDS011;10477;43.198;27.916;2022-07-23T14:57:58;31.20;;;28.32;;